Time;durP1;ratioP1;P1;durP2;ratioP2;P2;SDS_P1;SDS_P2;PMS_P1;PMS_P2;Temp;Humidity;BMP_temperature;BMP_pressure;BME280_temperature;BME280_humidity;BME280_pressure;Samples;Min_cycle;Max_cycle;Signal;HPM_P1;HPM_P2
2022/09/05 00:01:11;;;;;;;3.17;1.10;;;15.50;99.90;15.50;101340.00;;;;4923476;28;87692;-64
2022/09/05 00:04:14;;;;;;;2.08;1.42;;;15.50;99.90;15.40;101342.00;;;;4911842;28;111662;-64
2022/09/05 00:06:51;;;;;;;1.23;1.05;;;15.40;99.90;15.40;101335.00;;;;4913470;28;87990;-66
2022/09/05 00:09:35;;;;;;;2.00;1.80;;;15.40;99.90;15.40;101342.00;;;;4925187;28;87591;-64
2022/09/05 00:12:02;;;;;;;1.90;1.70;;;15.40;99.90;15.40;101344.00;;;;4916035;28;108526;-64
2022/09/05 00:14:53;;;;;;;1.33;1.23;;;15.30;99.90;15.30;101340.00;;;;4897979;28;104007;-64
2022/09/05 00:17:42;;;;;;;1.42;1.33;;;15.30;99.90;15.30;101342.00;;;;4912514;28;101706;-64
2022/09/05 00:20:39;;;;;;;1.73;1.48;;;15.30;99.90;15.30;101343.00;;;;4913559;28;102364;-64
2022/09/05 00:23:35;;;;;;;3.28;1.42;;;15.30;99.90;15.30;101346.00;;;;4914410;28;88320;-64
2022/09/05 00:26:17;;;;;;;1.60;1.27;;;15.30;99.90;15.30;101334.00;;;;4917908;28;89222;-65
2022/09/05 00:29:16;;;;;;;1.30;1.20;;;15.30;99.90;15.30;101344.00;;;;4915141;28;87921;-65
2022/09/05 00:32:00;;;;;;;1.17;1.17;;;15.20;99.90;15.30;101340.00;;;;4913992;28;88133;-66
2022/09/05 00:35:09;;;;;;;2.03;1.60;;;15.20;99.90;15.30;101341.00;;;;4914273;28;88868;-65
2022/09/05 00:37:42;;;;;;;1.30;1.15;;;15.30;99.90;15.30;101333.00;;;;4918423;28;87708;-64
2022/09/05 00:40:32;;;;;;;1.73;1.25;;;15.30;99.90;15.30;101346.00;;;;4919847;28;88025;-65
2022/09/05 00:43:16;;;;;;;1.63;1.45;;;15.20;99.90;15.30;101339.00;;;;4920613;28;87980;-65
2022/09/05 00:45:53;;;;;;;1.75;1.15;;;15.20;99.90;15.30;101338.00;;;;4925156;28;94870;-64
2022/09/05 00:48:53;;;;;;;2.03;1.40;;;15.30;99.90;15.30;101341.00;;;;4918622;28;100478;-64
2022/09/05 00:51:46;;;;;;;1.25;1.15;;;15.30;99.90;15.30;101347.00;;;;4919813;28;87907;-64
2022/09/05 00:54:52;;;;;;;1.93;1.37;;;15.30;99.90;15.30;101341.00;;;;4923681;28;101138;-63
2022/09/05 00:57:49;;;;;;;2.00;1.50;;;15.20;99.90;15.30;101349.00;;;;4921371;28;109549;-64
2022/09/05 01:00:34;;;;;;;1.45;1.00;;;15.20;99.90;15.30;101337.00;;;;4920700;28;87902;-63
2022/09/05 01:03:26;;;;;;;2.35;1.02;;;15.30;99.90;15.30;101339.00;;;;4905660;28;87725;-63
2022/09/05 01:06:36;;;;;;;3.58;1.05;;;15.20;99.90;15.30;101346.00;;;;4922299;28;87745;-64
2022/09/05 01:09:32;;;;;;;2.03;1.58;;;15.20;99.90;15.20;101338.00;;;;4882936;28;87437;-62
2022/09/05 01:12:17;;;;;;;1.92;1.80;;;15.20;99.90;15.20;101338.00;;;;4879559;28;106552;-63
2022/09/05 01:15:10;;;;;;;1.48;1.27;;;15.20;99.90;15.20;101345.00;;;;4914782;28;87844;-63
2022/09/05 01:18:04;;;;;;;1.83;1.52;;;15.20;99.90;15.20;101339.00;;;;4921419;28;89017;-63
2022/09/05 01:21:09;;;;;;;1.45;1.35;;;15.10;99.90;15.10;101343.00;;;;4922109;28;88097;-64
2022/09/05 01:24:21;;;;;;;4.65;1.83;;;15.10;99.90;15.10;101350.00;;;;4922604;28;88051;-63
2022/09/05 01:26:53;;;;;;;2.10;1.42;;;15.10;99.90;15.10;101341.00;;;;4920206;28;99128;-64
2022/09/05 01:29:50;;;;;;;1.73;1.63;;;15.10;99.90;15.10;101341.00;;;;4923032;28;87766;-63
2022/09/05 01:32:28;;;;;;;1.75;1.50;;;15.00;99.90;15.10;101349.00;;;;4915555;28;110577;-63
2022/09/05 01:35:01;;;;;;;1.50;1.40;;;15.00;99.90;15.10;101348.00;;;;4926152;28;88025;-64
2022/09/05 01:37:56;;;;;;;3.42;1.77;;;15.00;99.90;15.10;101344.00;;;;4922003;28;87248;-64
2022/09/05 01:41:04;;;;;;;1.38;1.23;;;15.00;99.90;15.10;101355.00;;;;4890888;28;87916;-63
2022/09/05 01:44:11;;;;;;;2.78;1.90;;;15.00;99.90;15.00;101356.00;;;;4915538;28;88963;-64
2022/09/05 01:47:07;;;;;;;1.75;1.60;;;15.00;99.90;15.00;101358.00;;;;4920506;28;94304;-63
2022/09/05 01:49:49;;;;;;;1.48;1.38;;;15.00;99.90;15.00;101360.00;;;;4918668;28;90291;-65
2022/09/05 01:53:01;;;;;;;1.98;1.88;;;15.00;99.90;14.90;101367.00;;;;4913585;28;102933;-63
2022/09/05 01:55:56;;;;;;;1.33;1.10;;;14.90;99.90;14.90;101356.00;;;;4919207;28;88040;-63
2022/09/05 01:59:09;;;;;;;2.07;1.87;;;14.90;99.90;14.80;101361.00;;;;4914086;28;109659;-64
2022/09/05 02:01:54;;;;;;;1.47;1.37;;;14.80;99.90;14.80;101361.00;;;;4917907;28;101221;-63
2022/09/05 02:04:45;;;;;;;2.90;1.30;;;14.80;99.90;14.80;101363.00;;;;4919711;28;92878;-63
2022/09/05 02:07:49;;;;;;;4.17;2.40;;;14.80;99.90;14.80;101366.00;;;;4916206;28;111237;-63
2022/09/05 02:10:31;;;;;;;2.27;1.90;;;14.70;99.90;14.80;101366.00;;;;4914749;28;111062;-63
2022/09/05 02:13:39;;;;;;;3.95;2.15;;;14.70;99.90;14.80;101352.00;;;;4914075;28;100034;-63
2022/09/05 02:16:23;;;;;;;2.17;1.80;;;14.70;99.90;14.80;101369.00;;;;4914871;28;88864;-62
2022/09/05 02:19:07;;;;;;;1.83;1.43;;;14.70;99.90;14.80;101361.00;;;;4916261;28;88263;-63
2022/09/05 02:21:36;;;;;;;3.60;1.50;;;14.70;99.90;14.80;101364.00;;;;4918079;28;117725;-63
2022/09/05 02:24:17;;;;;;;3.07;2.07;;;14.70;99.90;14.80;101363.00;;;;4922199;28;87664;-63
2022/09/05 02:27:05;;;;;;;2.40;1.87;;;14.70;99.90;14.70;101351.00;;;;4916616;28;88031;-64
2022/09/05 02:30:07;;;;;;;2.43;1.80;;;14.70;99.90;14.80;101352.00;;;;4918578;28;96966;-62
2022/09/05 02:33:01;;;;;;;1.67;1.57;;;14.70;99.90;14.70;101345.00;;;;4910550;28;89290;-63
2022/09/05 02:36:04;;;;;;;2.40;2.17;;;14.70;99.90;14.70;101351.00;;;;4918720;28;86927;-63
2022/09/05 02:38:54;;;;;;;2.07;1.80;;;14.70;99.90;14.70;101359.00;;;;4913015;28;92466;-63
2022/09/05 02:41:50;;;;;;;2.67;1.57;;;14.70;99.90;14.70;101359.00;;;;4915428;28;91709;-63
2022/09/05 02:44:52;;;;;;;1.80;1.70;;;14.60;99.90;14.70;101366.00;;;;4918233;28;97703;-63
2022/09/05 02:47:30;;;;;;;3.07;1.70;;;14.60;99.90;14.60;101350.00;;;;4904425;28;87893;-63
2022/09/05 02:50:28;;;;;;;2.00;1.77;;;14.60;99.90;14.60;101362.00;;;;4914842;28;105323;-63
2022/09/05 02:52:55;;;;;;;2.38;1.65;;;14.60;99.90;14.60;101363.00;;;;4918317;28;88884;-63
2022/09/05 02:56:07;;;;;;;2.70;2.10;;;14.50;99.90;14.50;101360.00;;;;4902163;28;102105;-64
2022/09/05 02:59:02;;;;;;;2.10;1.90;;;14.50;99.90;14.40;101358.00;;;;4918723;28;88559;-64
2022/09/05 03:01:57;;;;;;;1.40;1.30;;;14.40;99.90;14.40;101360.00;;;;4917177;28;87498;-64
2022/09/05 03:04:44;;;;;;;3.37;1.73;;;14.40;99.90;14.40;101357.00;;;;4906708;28;111450;-64
2022/09/05 03:08:24;;;;;;;2.20;2.00;;;14.30;99.90;14.30;101349.00;;;;4917122;28;87855;-63
2022/09/05 03:11:27;;;;;;;2.57;1.97;;;14.30;99.90;14.20;101348.00;;;;4889868;28;88175;-64
2022/09/05 03:14:22;;;;;;;1.97;1.57;;;14.30;99.90;14.20;101350.00;;;;4916868;28;88744;-63
2022/09/05 03:17:08;;;;;;;4.73;2.20;;;14.20;99.90;14.20;101348.00;;;;4914678;28;110830;-63
2022/09/05 03:20:22;;;;;;;2.17;1.63;;;14.20;99.90;14.20;101346.00;;;;4916895;28;88069;-63
2022/09/05 03:23:50;;;;;;;4.47;1.97;;;14.20;99.90;14.10;101351.00;;;;4918336;28;87667;-64
2022/09/05 03:26:48;;;;;;;2.63;2.07;;;14.20;99.90;14.10;101351.00;;;;4919252;28;97780;-64
2022/09/05 03:29:47;;;;;;;3.17;1.93;;;14.10;99.90;14.10;101343.00;;;;4913079;28;88669;-64
2022/09/05 03:32:31;;;;;;;2.67;2.03;;;14.10;99.90;14.10;101346.00;;;;4914500;28;88804;-65
2022/09/05 03:35:41;;;;;;;2.30;1.93;;;14.00;99.90;14.00;101352.00;;;;4917831;28;87104;-63
2022/09/05 03:39:02;;;;;;;2.63;1.90;;;14.00;99.90;14.00;101349.00;;;;4920038;28;87664;-64
2022/09/05 03:41:52;;;;;;;3.23;2.57;;;14.00;99.90;14.00;101355.00;;;;4914603;28;107552;-64
2022/09/05 03:44:50;;;;;;;5.50;2.20;;;13.90;99.90;13.90;101350.00;;;;4917489;28;88963;-64
2022/09/05 03:47:46;;;;;;;1.73;1.63;;;14.00;99.90;13.90;101358.00;;;;4916802;28;87872;-64
2022/09/05 03:50:33;;;;;;;2.83;2.03;;;13.90;99.90;13.90;101349.00;;;;4916509;28;88143;-63
2022/09/05 03:53:46;;;;;;;2.87;1.87;;;13.90;99.90;13.90;101348.00;;;;4915746;28;100729;-63
2022/09/05 03:56:46;;;;;;;2.97;2.07;;;13.90;99.90;13.80;101341.00;;;;4916588;28;88588;-63
2022/09/05 03:59:42;;;;;;;4.80;1.90;;;13.80;99.90;13.80;101348.00;;;;4916349;28;92038;-64
2022/09/05 04:02:13;;;;;;;3.07;1.80;;;13.80;99.90;13.80;101351.00;;;;4913788;28;104635;-64
2022/09/05 04:04:43;;;;;;;5.03;1.93;;;13.80;99.90;13.80;101352.00;;;;4916534;28;87323;-64
2022/09/05 04:07:39;;;;;;;3.20;2.20;;;13.80;99.90;13.80;101359.00;;;;4916430;28;88098;-65
2022/09/05 04:10:23;;;;;;;3.57;1.97;;;13.80;99.90;13.80;101346.00;;;;4914938;28;87968;-64
2022/09/05 04:13:28;;;;;;;3.10;2.13;;;13.70;99.90;13.70;101348.00;;;;4916364;28;88512;-65
2022/09/05 04:16:14;;;;;;;2.70;2.50;;;13.70;99.90;13.70;101348.00;;;;4913173;28;110541;-63
2022/09/05 04:18:53;;;;;;;1.60;1.50;;;13.70;99.90;13.70;101356.00;;;;4914390;28;110729;-64
2022/09/05 04:21:29;;;;;;;3.00;1.80;;;13.70;99.90;13.70;101360.00;;;;4914083;28;87638;-64
2022/09/05 04:24:11;;;;;;;5.37;2.53;;;13.70;99.90;13.70;101364.00;;;;4913298;28;87837;-64
2022/09/05 04:27:11;;;;;;;2.67;2.10;;;13.70;99.90;13.70;101360.00;;;;4917207;28;111808;-63
2022/09/05 04:29:59;;;;;;;2.23;1.67;;;13.70;99.90;13.70;101359.00;;;;4909710;28;109387;-65
2022/09/05 04:32:52;;;;;;;2.37;2.03;;;13.70;99.90;13.70;101361.00;;;;4914213;28;87107;-64
2022/09/05 04:35:48;;;;;;;1.40;1.30;;;13.70;99.90;13.70;101361.00;;;;4916657;28;87805;-64
2022/09/05 04:38:17;;;;;;;12.33;2.10;;;13.70;99.90;13.70;101371.00;;;;4916605;28;111969;-65
2022/09/05 04:41:08;;;;;;;2.53;2.20;;;13.70;99.90;13.70;101369.00;;;;4916651;28;88751;-63
2022/09/05 04:43:43;;;;;;;3.57;2.00;;;13.70;99.90;13.70;101376.00;;;;4908278;28;88136;-63
2022/09/05 04:46:30;;;;;;;2.13;1.93;;;13.70;99.90;13.70;101378.00;;;;4910040;28;97044;-65
2022/09/05 04:49:14;;;;;;;2.40;1.90;;;13.70;99.90;13.70;101369.00;;;;4907827;28;88263;-64
2022/09/05 04:51:54;;;;;;;3.17;2.77;;;13.70;99.90;13.80;101373.00;;;;4909029;28;102740;-63
2022/09/05 04:54:57;;;;;;;6.53;2.20;;;13.70;99.90;13.80;101382.00;;;;4911480;28;87871;-64
2022/09/05 04:57:45;;;;;;;2.77;2.23;;;13.80;99.90;13.90;101371.00;;;;4905147;28;87719;-63
2022/09/05 05:00:28;;;;;;;2.33;1.67;;;13.80;99.90;14.00;101370.00;;;;4910571;28;87449;-64
2022/09/05 05:02:59;;;;;;;1.47;1.37;;;13.90;99.90;14.00;101374.00;;;;4909734;28;87896;-63
2022/09/05 05:05:50;;;;;;;1.93;1.53;;;14.00;99.90;14.10;101382.00;;;;4909897;28;99108;-62
2022/09/05 05:08:27;;;;;;;3.20;2.17;;;14.00;99.90;14.20;101373.00;;;;4908569;28;102093;-63
2022/09/05 05:11:01;;;;;;;1.93;1.77;;;14.10;99.90;14.30;101381.00;;;;4908944;28;88085;-64
2022/09/05 05:13:56;;;;;;;1.73;1.63;;;14.20;99.90;14.30;101374.00;;;;4904895;28;109857;-63
2022/09/05 05:16:41;;;;;;;2.10;1.90;;;14.20;99.90;14.40;101377.00;;;;4909057;28;88105;-62
2022/09/05 05:19:25;;;;;;;2.30;2.10;;;14.30;99.90;14.50;101373.00;;;;4907928;28;96330;-63
2022/09/05 05:21:56;;;;;;;5.67;2.27;;;14.40;99.90;14.60;101378.00;;;;4911521;28;102626;-63
2022/09/05 05:24:35;;;;;;;1.87;1.77;;;14.40;99.90;14.70;101388.00;;;;4911457;28;88414;-62
2022/09/05 05:27:18;;;;;;;2.03;1.93;;;14.50;99.90;14.70;101381.00;;;;4915573;28;86885;-64
2022/09/05 05:30:03;;;;;;;3.03;2.73;;;14.70;99.90;14.80;101387.00;;;;4922592;28;88278;-63
2022/09/05 05:32:48;;;;;;;3.00;1.93;;;14.70;99.90;14.90;101387.00;;;;4910831;28;88014;-64
2022/09/05 05:35:24;;;;;;;2.70;2.50;;;14.80;99.90;15.00;101398.00;;;;4914900;28;88870;-63
2022/09/05 05:38:16;;;;;;;2.20;2.03;;;14.80;99.90;15.10;101397.00;;;;4917545;28;104860;-64
2022/09/05 05:41:00;;;;;;;2.27;2.03;;;14.90;99.90;15.20;101396.00;;;;4917610;28;87760;-63
2022/09/05 05:43:39;;;;;;;3.37;1.77;;;15.10;99.90;15.30;101400.00;;;;4915776;28;104832;-64
2022/09/05 05:46:06;;;;;;;8.70;2.47;;;15.20;99.90;15.50;101397.00;;;;4905641;28;88205;-64
2022/09/05 05:48:38;;;;;;;3.03;2.33;;;15.30;99.90;15.60;101395.00;;;;4916491;28;87839;-63
2022/09/05 05:51:24;;;;;;;3.03;2.15;;;15.40;99.90;15.70;101410.00;;;;4915047;28;87815;-63
2022/09/05 05:54:12;;;;;;;2.92;2.47;;;15.60;99.90;15.90;101405.00;;;;4911901;28;87660;-63
2022/09/05 05:57:28;;;;;;;2.30;2.10;;;15.80;99.90;16.00;101408.00;;;;4921329;28;109805;-64
2022/09/05 06:00:06;;;;;;;3.30;3.00;;;15.80;99.90;16.20;101408.00;;;;4916656;28;88072;-63
2022/09/05 06:03:27;;;;;;;3.10;2.05;;;16.00;99.90;16.40;101407.00;;;;4915058;28;89018;-63
2022/09/05 06:06:37;;;;;;;2.55;2.28;;;16.20;99.90;16.60;101407.00;;;;4909107;28;87745;-63
2022/09/05 06:09:59;;;;;;;2.50;2.22;;;16.40;99.90;16.90;101407.00;;;;4914144;28;87896;-64
2022/09/05 06:13:06;;;;;;;2.00;1.80;;;16.60;99.90;17.10;101406.00;;;;4916009;28;102820;-64
2022/09/05 06:16:06;;;;;;;4.03;2.05;;;16.80;99.90;17.20;101398.00;;;;4916567;28;87658;-64
2022/09/05 06:19:32;;;;;;;2.13;1.88;;;17.00;99.90;17.40;101405.00;;;;4918344;28;88433;-64
2022/09/05 06:22:12;;;;;;;2.20;1.90;;;17.20;99.90;17.70;101400.00;;;;4856327;28;88146;-64
2022/09/05 06:25:19;;;;;;;2.95;2.22;;;17.40;99.90;17.80;101400.00;;;;4915182;28;104264;-64
2022/09/05 06:28:19;;;;;;;2.40;2.15;;;17.60;99.90;18.00;101403.00;;;;4909844;28;102651;-63
2022/09/05 06:31:05;;;;;;;3.72;2.33;;;17.80;99.90;18.20;101401.00;;;;4908907;28;95991;-64
2022/09/05 06:34:04;;;;;;;2.97;2.03;;;18.00;99.90;18.40;101403.00;;;;4914625;28;88849;-65
2022/09/05 06:37:00;;;;;;;4.00;2.47;;;18.20;99.90;18.60;101418.00;;;;4917977;28;87812;-64
2022/09/05 06:39:56;;;;;;;1.92;1.73;;;18.30;99.90;18.80;101410.00;;;;4912049;28;98643;-63
2022/09/05 06:42:49;;;;;;;2.97;1.98;;;18.50;99.90;19.00;101414.00;;;;4918749;28;88191;-64
2022/09/05 06:45:52;;;;;;;2.10;1.80;;;18.70;99.90;19.30;101411.00;;;;4918364;28;87727;-64
2022/09/05 06:48:44;;;;;;;2.30;2.10;;;19.00;99.90;19.50;101415.00;;;;4911274;28;97362;-65
2022/09/05 06:51:43;;;;;;;2.15;1.95;;;19.20;99.90;19.60;101413.00;;;;4910634;28;87765;-65
2022/09/05 06:54:56;;;;;;;3.75;2.33;;;19.40;99.90;19.90;101421.00;;;;4917421;28;108767;-65
2022/09/05 06:58:01;;;;;;;6.75;3.50;;;19.60;99.90;20.10;101411.00;;;;4904803;28;87871;-65
2022/09/05 07:00:37;;;;;;;2.65;2.05;;;19.80;99.90;20.30;101413.00;;;;4915684;28;87907;-65
2022/09/05 07:03:24;;;;;;;3.00;2.35;;;20.10;99.90;20.40;101413.00;;;;4906819;28;88853;-64
2022/09/05 07:06:10;;;;;;;3.15;2.40;;;20.20;99.90;20.60;101421.00;;;;4918464;28;88669;-63
2022/09/05 07:08:59;;;;;;;2.83;1.92;;;20.30;99.90;20.70;101422.00;;;;4911261;28;110412;-65
2022/09/05 07:11:39;;;;;;;3.83;3.13;;;20.40;99.90;20.80;101425.00;;;;4917988;28;95174;-64
2022/09/05 07:14:21;;;;;;;4.53;3.00;;;20.50;99.80;20.90;101418.00;;;;4915677;28;99598;-64
2022/09/05 07:16:53;;;;;;;3.10;2.40;;;20.70;99.60;21.00;101427.00;;;;4915896;28;110088;-64
2022/09/05 07:19:26;;;;;;;4.03;2.50;;;20.70;98.90;21.20;101422.00;;;;4906766;28;106737;-64
2022/09/05 07:22:13;;;;;;;2.95;2.67;;;20.90;99.00;21.50;101420.00;;;;4919874;28;86878;-64
2022/09/05 07:24:46;;;;;;;3.70;2.50;;;21.20;98.10;21.50;101411.00;;;;4918886;28;87697;-64
2022/09/05 07:27:35;;;;;;;2.30;2.10;;;21.30;96.80;21.50;101415.00;;;;4916568;28;88894;-66
2022/09/05 07:30:02;;;;;;;3.13;2.17;;;21.30;96.90;21.60;101408.00;;;;4914159;28;88909;-64
2022/09/05 07:32:35;;;;;;;2.80;2.17;;;21.30;96.50;21.80;101415.00;;;;4915751;28;88666;-64
2022/09/05 07:35:03;;;;;;;3.33;3.05;;;21.50;96.50;22.00;101426.00;;;;4914472;28;97874;-65
2022/09/05 07:37:43;;;;;;;3.05;2.75;;;21.70;95.70;22.00;101429.00;;;;4913513;28;109187;-64
2022/09/05 07:40:15;;;;;;;5.05;2.63;;;21.80;95.80;22.20;101427.00;;;;4908934;28;118640;-64
2022/09/05 07:43:11;;;;;;;4.03;2.55;;;21.90;95.60;22.50;101436.00;;;;4915694;28;87797;-65
2022/09/05 07:46:11;;;;;;;3.38;2.78;;;22.20;95.50;22.80;101439.00;;;;4915836;28;87676;-64
2022/09/05 07:48:50;;;;;;;3.30;2.65;;;22.40;94.20;22.90;101434.00;;;;4915050;28;87150;-65
2022/09/05 07:51:29;;;;;;;2.88;2.25;;;22.60;93.10;23.00;101425.00;;;;4910521;28;87849;-64
2022/09/05 07:54:18;;;;;;;3.13;2.40;;;22.70;93.40;23.10;101433.00;;;;4918612;28;87851;-64
2022/09/05 07:56:50;;;;;;;3.80;2.58;;;22.90;92.70;23.40;101434.00;;;;4910038;28;88708;-65
2022/09/05 07:59:16;;;;;;;2.55;1.98;;;23.00;92.50;23.60;101423.00;;;;4908672;28;88490;-64
2022/09/05 08:01:46;;;;;;;3.13;1.90;;;23.30;92.10;23.90;101420.00;;;;4906233;28;117486;-64
2022/09/05 08:04:33;;;;;;;11.35;2.90;;;23.50;90.90;24.00;101429.00;;;;4914571;28;101303;-65
2022/09/05 08:07:25;;;;;;;2.55;2.35;;;23.70;90.70;24.20;101423.00;;;;4914998;28;87857;-65
2022/09/05 08:10:12;;;;;;;4.60;2.15;;;23.90;89.20;24.30;101420.00;;;;4915368;28;108943;-64
2022/09/05 08:12:57;;;;;;;2.38;2.17;;;24.00;88.70;24.50;101425.00;;;;4917069;28;88208;-64
2022/09/05 08:15:27;;;;;;;2.40;2.20;;;24.20;88.20;24.70;101419.00;;;;4916855;28;87670;-65
2022/09/05 08:18:16;;;;;;;3.45;2.42;;;24.40;86.30;24.80;101423.00;;;;4908109;28;101891;-64
2022/09/05 08:21:20;;;;;;;3.88;3.00;;;24.50;84.70;25.00;101420.00;;;;4917700;28;88372;-64
2022/09/05 08:23:56;;;;;;;2.70;2.20;;;24.70;83.20;25.10;101430.00;;;;4916861;28;88684;-64
2022/09/05 08:26:37;;;;;;;3.70;2.30;;;24.80;83.00;25.30;101412.00;;;;4915655;28;87667;-64
2022/09/05 08:29:25;;;;;;;3.63;2.10;;;24.90;82.10;25.40;101424.00;;;;4911775;28;89483;-64
2022/09/05 08:32:00;;;;;;;2.67;2.10;;;25.00;80.20;25.50;101423.00;;;;4916946;28;87642;-66
2022/09/05 08:35:05;;;;;;;3.00;2.15;;;25.20;79.30;25.60;101426.00;;;;4916245;28;102946;-64
2022/09/05 08:37:31;;;;;;;3.15;2.85;;;25.30;78.80;25.70;101422.00;;;;4907523;28;87791;-65
2022/09/05 08:40:06;;;;;;;2.85;2.38;;;25.40;79.20;26.00;101418.00;;;;4915601;28;87724;-64
2022/09/05 08:43:07;;;;;;;2.90;1.73;;;25.50;77.90;26.20;101423.00;;;;4914938;28;88047;-64
2022/09/05 08:45:55;;;;;;;3.15;2.47;;;25.80;76.50;26.20;101409.00;;;;4902589;28;110362;-64
2022/09/05 08:49:18;;;;;;;3.83;2.42;;;25.90;75.50;26.30;101414.00;;;;4913927;28;87885;-65
2022/09/05 08:51:56;;;;;;;2.80;1.98;;;26.00;74.70;26.30;101411.00;;;;4916712;28;88790;-65
2022/09/05 08:54:44;;;;;;;4.78;2.25;;;26.00;73.20;26.20;101406.00;;;;4914879;28;88944;-64
2022/09/05 08:57:46;;;;;;;2.20;1.50;;;26.00;72.30;26.10;101406.00;;;;4914058;28;88392;-65
2022/09/05 09:00:19;;;;;;;3.30;2.83;;;25.90;73.10;26.30;101408.00;;;;4915881;28;87699;-65
2022/09/05 09:03:22;;;;;;;4.15;2.47;;;25.90;73.70;26.50;101414.00;;;;4918320;28;97455;-65
2022/09/05 09:05:53;;;;;;;2.47;2.13;;;26.10;73.80;26.60;101409.00;;;;4921038;28;107156;-64
2022/09/05 09:08:56;;;;;;;2.95;2.67;;;26.20;72.20;26.70;101411.00;;;;4919483;28;117705;-65
2022/09/05 09:12:03;;;;;;;2.72;1.80;;;26.30;71.30;26.70;101404.00;;;;4919435;28;95432;-65
2022/09/05 09:14:46;;;;;;;3.05;2.00;;;26.30;70.60;26.80;101406.00;;;;4889401;28;87827;-65
2022/09/05 09:17:30;;;;;;;2.92;2.50;;;26.40;71.00;27.00;101402.00;;;;4919582;28;88486;-65
2022/09/05 09:20:35;;;;;;;9.68;2.92;;;26.60;70.40;27.30;101412.00;;;;4917031;28;88666;-64
2022/09/05 09:23:17;;;;;;;3.85;1.98;;;26.80;69.30;27.40;101417.00;;;;4919351;28;87960;-65
2022/09/05 09:26:21;;;;;;;2.30;2.10;;;27.00;68.20;27.60;101420.00;;;;4915832;28;100573;-65
2022/09/05 09:29:05;;;;;;;2.55;2.35;;;27.10;68.10;27.70;101415.00;;;;4918223;28;107575;-65
2022/09/05 09:31:55;;;;;;;2.97;2.38;;;27.30;66.90;27.80;101414.00;;;;4917891;28;87886;-66
2022/09/05 09:34:30;;;;;;;2.17;1.88;;;27.30;66.60;28.00;101410.00;;;;4917417;28;93620;-64
2022/09/05 09:37:02;;;;;;;7.03;2.30;;;27.50;66.70;28.10;101412.00;;;;4919554;28;88048;-64
2022/09/05 09:39:56;;;;;;;3.60;2.70;;;27.70;64.60;28.20;101406.00;;;;4917996;28;119014;-64
2022/09/05 09:42:50;;;;;;;2.05;1.63;;;27.70;64.10;28.40;101411.00;;;;4915396;28;110435;-65
2022/09/05 09:45:24;;;;;;;2.22;1.70;;;27.80;63.90;28.50;101415.00;;;;4921990;28;87882;-65
2022/09/05 09:48:08;;;;;;;3.83;2.53;;;28.00;62.90;28.70;101417.00;;;;4917041;28;88812;-65
2022/09/05 09:51:10;;;;;;;2.38;2.17;;;28.10;62.70;28.90;101414.00;;;;4916594;28;117357;-65
2022/09/05 09:54:01;;;;;;;2.58;1.92;;;28.30;61.70;28.90;101412.00;;;;4920332;28;87948;-65
2022/09/05 09:57:24;;;;;;;3.00;2.45;;;28.30;60.40;28.90;101406.00;;;;4915899;28;87961;-65
2022/09/05 10:00:14;;;;;;;3.22;2.20;;;28.40;59.90;29.10;101401.00;;;;4920521;28;87735;-65
2022/09/05 10:02:52;;;;;;;2.72;2.40;;;28.50;59.80;29.10;101409.00;;;;4917623;28;87993;-64
2022/09/05 10:06:03;;;;;;;2.53;2.05;;;29.40;59.40;29.30;101405.00;;;;4915410;28;114855;-64
2022/09/05 10:08:44;;;;;;;2.13;1.92;;;28.60;59.10;29.40;101397.00;;;;4911527;28;86775;-65
2022/09/05 10:11:25;;;;;;;4.47;1.90;;;28.70;58.60;29.60;101404.00;;;;4917119;28;87679;-64
2022/09/05 10:14:18;;;;;;;4.30;2.05;;;28.90;58.50;29.70;101398.00;;;;4915623;28;111007;-65
2022/09/05 10:17:16;;;;;;;2.85;2.08;;;29.10;57.40;29.60;101395.00;;;;4919592;28;88642;-66
2022/09/05 10:20:06;;;;;;;3.05;2.15;;;29.00;57.20;29.60;101395.00;;;;4920682;28;87794;-65
2022/09/05 10:23:20;;;;;;;2.00;1.83;;;29.00;57.40;29.60;101395.00;;;;4918343;28;88089;-65
2022/09/05 10:26:31;;;;;;;3.63;1.75;;;29.00;56.20;29.60;101395.00;;;;4882598;28;88274;-65
2022/09/05 10:29:10;;;;;;;3.63;1.58;;;29.00;56.60;29.90;101394.00;;;;4915561;28;103572;-65
2022/09/05 10:31:55;;;;;;;2.17;1.98;;;29.20;57.00;30.20;101390.00;;;;4914364;28;87852;-65
2022/09/05 10:34:28;;;;;;;1.40;1.30;;;29.50;56.20;30.40;101385.00;;;;4918150;28;88239;-65
2022/09/05 10:37:06;;;;;;;4.05;1.77;;;29.70;55.40;30.50;101375.00;;;;4918781;28;87285;-64
2022/09/05 10:39:37;;;;;;;3.65;2.00;;;29.80;54.90;30.50;101382.00;;;;4917922;28;88167;-65
2022/09/05 10:42:09;;;;;;;2.63;2.33;;;29.80;54.50;30.40;101383.00;;;;4912781;28;88146;-65
2022/09/05 10:44:53;;;;;;;2.75;2.17;;;29.80;54.30;30.40;101376.00;;;;4916284;28;88885;-65
2022/09/05 10:47:58;;;;;;;2.83;2.35;;;29.80;54.30;30.40;101368.00;;;;4913754;28;88563;-64
2022/09/05 10:50:32;;;;;;;2.75;2.25;;;29.80;53.70;30.40;101372.00;;;;4912592;28;88062;-65
2022/09/05 10:53:23;;;;;;;2.83;2.03;;;29.80;53.80;30.60;101377.00;;;;4916426;28;87730;-69
2022/09/05 10:56:20;;;;;;;2.95;2.17;;;30.00;53.60;30.80;101369.00;;;;4916975;28;99349;-68
2022/09/05 10:59:02;;;;;;;2.10;1.90;;;30.10;53.60;30.60;101368.00;;;;4914698;28;100071;-69
2022/09/05 11:01:40;;;;;;;5.13;2.58;;;30.10;52.10;30.10;101369.00;;;;4900134;28;87984;-68
2022/09/05 11:04:38;;;;;;;4.05;2.60;;;29.70;52.50;29.80;101358.00;;;;4913272;28;87023;-67
2022/09/05 11:07:16;;;;;;;3.75;1.77;;;29.40;53.10;29.80;101359.00;;;;4918922;28;88044;-68
2022/09/05 11:10:09;;;;;;;2.63;2.00;;;29.30;53.30;29.90;101356.00;;;;4914469;28;88181;-68
2022/09/05 11:13:10;;;;;;;4.13;2.15;;;29.30;53.90;30.00;101350.00;;;;4914898;28;88933;-69
2022/09/05 11:15:58;;;;;;;2.22;1.98;;;29.40;53.60;30.10;101358.00;;;;4914858;28;100738;-68
2022/09/05 11:18:51;;;;;;;2.33;1.95;;;29.50;53.60;30.20;101360.00;;;;4914267;28;87893;-68
2022/09/05 11:21:54;;;;;;;2.55;2.35;;;29.60;53.50;30.50;101347.00;;;;4917618;28;102816;-68
2022/09/05 11:24:54;;;;;;;1.95;1.75;;;29.90;53.80;31.00;101351.00;;;;4917251;28;87972;-69
2022/09/05 11:27:59;;;;;;;2.72;1.63;;;30.20;53.50;31.40;101347.00;;;;4917751;28;87795;-69
2022/09/05 11:30:30;;;;;;;4.38;1.88;;;30.60;52.40;31.60;101346.00;;;;4875987;28;87735;-68
2022/09/05 11:33:38;;;;;;;3.05;1.75;;;30.90;52.10;32.00;101341.00;;;;4913617;28;87946;-68
2022/09/05 11:36:28;;;;;;;2.03;1.60;;;31.20;51.10;32.50;101339.00;;;;4912678;28;88985;-69
2022/09/05 11:39:22;;;;;;;2.15;1.83;;;31.60;51.00;32.70;101335.00;;;;4913124;28;102741;-68
2022/09/05 11:42:35;;;;;;;1.75;1.65;;;32.00;49.00;32.90;101338.00;;;;4914412;28;93216;-69
2022/09/05 11:45:37;;;;;;;2.80;1.92;;;32.10;49.50;33.00;101332.00;;;;4916736;28;88613;-70
2022/09/05 11:48:33;;;;;;;3.17;2.13;;;32.30;48.70;32.50;101336.00;;;;4910614;28;109729;-68
2022/09/05 11:51:36;;;;;;;2.17;1.88;;;32.10;47.90;32.20;101336.00;;;;4913425;28;87597;-69
2022/09/05 11:54:35;;;;;;;1.65;1.55;;;31.70;48.40;32.30;101335.00;;;;4913440;28;99161;-68
2022/09/05 11:57:31;;;;;;;2.55;2.10;;;31.70;49.00;32.50;101333.00;;;;4915757;28;88100;-68
2022/09/05 12:00:13;;;;;;;1.83;1.67;;;31.80;48.80;32.80;101325.00;;;;4915967;28;87645;-68
2022/09/05 12:03:01;;;;;;;2.67;2.20;;;32.10;49.10;33.20;101318.00;;;;4914999;28;87321;-69
2022/09/05 12:05:59;;;;;;;2.35;2.15;;;32.40;49.00;33.40;101327.00;;;;4919142;28;87618;-68
2022/09/05 12:08:50;;;;;;;3.63;2.03;;;32.60;47.30;33.20;101310.00;;;;4909899;28;88026;-69
2022/09/05 12:11:43;;;;;;;4.78;2.25;;;32.60;46.70;33.10;101326.00;;;;4906473;28;110369;-69
2022/09/05 12:14:56;;;;;;;4.20;2.40;;;32.50;46.90;33.10;101324.00;;;;4915125;28;87852;-71
2022/09/05 12:18:06;;;;;;;2.25;1.98;;;32.40;46.90;33.10;101322.00;;;;4893804;28;88123;-69
2022/09/05 12:20:44;;;;;;;3.15;2.13;;;32.40;47.30;33.20;101319.00;;;;4903490;28;89491;-68
2022/09/05 12:23:18;;;;;;;2.88;2.03;;;32.50;47.00;33.30;101308.00;;;;4915864;28;103403;-69
2022/09/05 12:26:04;;;;;;;2.35;2.15;;;32.60;47.30;33.40;101306.00;;;;4916858;28;87683;-69